sensor_id;sensor_type;location;lat;lon;timestamp;pressure;altitude;pressure_sealevel;temperature;humidity
6853;BME280;3465;42.144;24.722;2024-03-23T00:56:06;99918.91;;;6.11;61.50
6853;BME280;3465;42.144;24.722;2024-03-23T00:58:31;99906.78;;;6.13;61.34
6853;BME280;3465;42.144;24.722;2024-03-23T01:00:57;99922.47;;;6.28;61.44
6853;BME280;3465;42.144;24.722;2024-03-23T01:03:22;99925.50;;;6.18;61.31
6853;BME280;3465;42.144;24.722;2024-03-23T01:05:48;99927.47;;;6.11;61.37
6853;BME280;3465;42.144;24.722;2024-03-23T01:08:18;99915.97;;;5.98;61.40
6853;BME280;3465;42.144;24.722;2024-03-23T01:10:54;99920.59;;;5.90;61.88
6853;BME280;3465;42.144;24.722;2024-03-23T01:13:19;99923.41;;;6.06;61.33
6853;BME280;3465;42.144;24.722;2024-03-23T01:15:55;99909.59;;;6.07;61.69
6853;BME280;3465;42.144;24.722;2024-03-23T01:18:21;99921.38;;;6.14;61.94
6853;BME280;3465;42.144;24.722;2024-03-23T01:20:47;99923.22;;;6.10;61.71
6853;BME280;3465;42.144;24.722;2024-03-23T01:23:13;99924.06;;;6.11;61.78
6853;BME280;3465;42.144;24.722;2024-03-23T01:25:39;99916.38;;;6.09;62.04
6853;BME280;3465;42.144;24.722;2024-03-23T01:28:05;99914.59;;;6.11;62.31
6853;BME280;3465;42.144;24.722;2024-03-23T01:30:34;99926.09;;;6.03;62.54
6853;BME280;3465;42.144;24.722;2024-03-23T01:33:00;99934.13;;;5.73;63.15
6853;BME280;3465;42.144;24.722;2024-03-23T01:35:26;99926.00;;;5.61;63.54
6853;BME280;3465;42.144;24.722;2024-03-23T01:37:52;99932.72;;;5.20;65.08
6853;BME280;3465;42.144;24.722;2024-03-23T01:40:17;99925.31;;;5.34;64.65
6853;BME280;3465;42.144;24.722;2024-03-23T01:42:55;99916.38;;;5.21;64.21
6853;BME280;3465;42.144;24.722;2024-03-23T01:45:21;99927.44;;;5.00;64.84
6853;BME280;3465;42.144;24.722;2024-03-23T01:47:46;99934.25;;;4.78;66.47
6853;BME280;3465;42.144;24.722;2024-03-23T01:50:12;99928.53;;;4.70;67.23
6853;BME280;3465;42.144;24.722;2024-03-23T01:52:37;99933.38;;;5.02;66.10
6853;BME280;3465;42.144;24.722;2024-03-23T01:55:03;99933.66;;;4.94;67.23
6853;BME280;3465;42.144;24.722;2024-03-23T01:57:29;99929.44;;;4.92;66.71
6853;BME280;3465;42.144;24.722;2024-03-23T01:59:55;99926.66;;;4.98;66.25
6853;BME280;3465;42.144;24.722;2024-03-23T02:02:20;99929.50;;;4.90;66.44
6853;BME280;3465;42.144;24.722;2024-03-23T02:04:46;99931.31;;;4.88;66.55
6853;BME280;3465;42.144;24.722;2024-03-23T02:07:11;99926.72;;;4.96;66.27
6853;BME280;3465;42.144;24.722;2024-03-23T02:09:37;99918.84;;;5.01;66.11
6853;BME280;3465;42.144;24.722;2024-03-23T02:12:03;99918.16;;;5.19;65.47
6853;BME280;3465;42.144;24.722;2024-03-23T02:14:29;99914.47;;;5.03;65.56
6853;BME280;3465;42.144;24.722;2024-03-23T02:16:54;99918.56;;;5.08;65.88
6853;BME280;3465;42.144;24.722;2024-03-23T02:19:19;99921.41;;;5.24;65.05
6853;BME280;3465;42.144;24.722;2024-03-23T02:21:45;99924.09;;;5.21;64.98
6853;BME280;3465;42.144;24.722;2024-03-23T02:24:12;99916.41;;;5.20;65.57
6853;BME280;3465;42.144;24.722;2024-03-23T02:26:37;99928.41;;;5.21;65.35
6853;BME280;3465;42.144;24.722;2024-03-23T02:29:03;99920.91;;;5.14;65.21
6853;BME280;3465;42.144;24.722;2024-03-23T02:31:28;99909.19;;;5.06;65.53
6853;BME280;3465;42.144;24.722;2024-03-23T02:33:54;99912.72;;;5.03;65.96
6853;BME280;3465;42.144;24.722;2024-03-23T02:36:19;99924.78;;;5.03;66.00
6853;BME280;3465;42.144;24.722;2024-03-23T02:38:46;99921.97;;;5.09;66.08
6853;BME280;3465;42.144;24.722;2024-03-23T02:41:11;99921.06;;;5.10;65.29
6853;BME280;3465;42.144;24.722;2024-03-23T02:43:37;99923.00;;;4.80;66.31
6853;BME280;3465;42.144;24.722;2024-03-23T02:46:03;99926.16;;;4.88;66.13
6853;BME280;3465;42.144;24.722;2024-03-23T02:48:29;99924.38;;;4.90;65.75
6853;BME280;3465;42.144;24.722;2024-03-23T02:50:55;99918.63;;;5.07;64.70
6853;BME280;3465;42.144;24.722;2024-03-23T02:53:20;99923.00;;;4.80;65.82
6853;BME280;3465;42.144;24.722;2024-03-23T02:55:46;99933.94;;;4.87;65.43
6853;BME280;3465;42.144;24.722;2024-03-23T02:58:11;99924.22;;;4.95;65.27
6853;BME280;3465;42.144;24.722;2024-03-23T03:00:37;99917.38;;;5.17;63.83
6853;BME280;3465;42.144;24.722;2024-03-23T03:03:03;99907.75;;;4.99;64.10
6853;BME280;3465;42.144;24.722;2024-03-23T03:05:28;99919.22;;;4.90;64.12
6853;BME280;3465;42.144;24.722;2024-03-23T03:07:54;99930.94;;;4.74;64.99
6853;BME280;3465;42.144;24.722;2024-03-23T03:10:19;99917.59;;;4.63;65.38
6853;BME280;3465;42.144;24.722;2024-03-23T03:12:45;99917.88;;;4.56;65.62
6853;BME280;3465;42.144;24.722;2024-03-23T03:15:10;99924.00;;;4.76;64.73
6853;BME280;3465;42.144;24.722;2024-03-23T03:17:36;99918.88;;;4.76;65.20
6853;BME280;3465;42.144;24.722;2024-03-23T03:20:01;99918.44;;;4.64;64.71
6853;BME280;3465;42.144;24.722;2024-03-23T03:22:27;99918.28;;;4.68;64.58
6853;BME280;3465;42.144;24.722;2024-03-23T03:24:52;99920.34;;;4.59;64.94
6853;BME280;3465;42.144;24.722;2024-03-23T03:27:18;99915.22;;;4.59;65.46
6853;BME280;3465;42.144;24.722;2024-03-23T03:29:43;99918.13;;;4.73;65.11
6853;BME280;3465;42.144;24.722;2024-03-23T03:32:09;99909.72;;;4.68;64.92
6853;BME280;3465;42.144;24.722;2024-03-23T03:34:34;99921.78;;;4.41;66.39
6853;BME280;3465;42.144;24.722;2024-03-23T03:37:00;99921.84;;;4.40;66.18
6853;BME280;3465;42.144;24.722;2024-03-23T03:39:25;99928.66;;;4.65;65.28
6853;BME280;3465;42.144;24.722;2024-03-23T03:41:51;99932.59;;;4.75;64.55
6853;BME280;3465;42.144;24.722;2024-03-23T03:44:17;99928.59;;;4.68;65.00
6853;BME280;3465;42.144;24.722;2024-03-23T03:46:43;99926.44;;;4.56;65.51
6853;BME280;3465;42.144;24.722;2024-03-23T03:49:08;99912.25;;;4.45;65.48
6853;BME280;3465;42.144;24.722;2024-03-23T03:51:34;99932.72;;;4.48;66.51
6853;BME280;3465;42.144;24.722;2024-03-23T03:54:00;99931.94;;;4.46;66.34
6853;BME280;3465;42.144;24.722;2024-03-23T03:56:25;99940.38;;;4.49;66.18
6853;BME280;3465;42.144;24.722;2024-03-23T03:58:51;99938.66;;;4.50;65.84
6853;BME280;3465;42.144;24.722;2024-03-23T04:01:16;99940.84;;;4.36;65.76
6853;BME280;3465;42.144;24.722;2024-03-23T04:03:43;99943.53;;;4.33;65.29
6853;BME280;3465;42.144;24.722;2024-03-23T04:06:11;99937.03;;;4.21;65.53
6853;BME280;3465;42.144;24.722;2024-03-23T04:08:37;99947.97;;;4.27;65.47
6853;BME280;3465;42.144;24.722;2024-03-23T04:11:03;99938.53;;;4.28;65.56
6853;BME280;3465;42.144;24.722;2024-03-23T04:13:29;99945.69;;;4.45;64.53
6853;BME280;3465;42.144;24.722;2024-03-23T04:15:55;99953.22;;;4.51;64.59
6853;BME280;3465;42.144;24.722;2024-03-23T04:18:21;99950.19;;;4.38;64.29
6853;BME280;3465;42.144;24.722;2024-03-23T04:20:47;99938.78;;;4.20;nan
6853;BME280;3465;42.144;24.722;2024-03-23T04:23:13;99944.47;;;4.04;65.56
6853;BME280;3465;42.144;24.722;2024-03-23T04:25:38;99949.75;;;3.99;65.28
6853;BME280;3465;42.144;24.722;2024-03-23T04:28:04;99949.50;;;4.07;64.56
6853;BME280;3465;42.144;24.722;2024-03-23T04:30:30;99944.84;;;3.92;65.39
6853;BME280;3465;42.144;24.722;2024-03-23T04:32:57;99947.28;;;3.96;65.35
6853;BME280;3465;42.144;24.722;2024-03-23T04:35:23;99955.31;;;3.86;65.61
6853;BME280;3465;42.144;24.722;2024-03-23T04:37:50;99960.78;;;3.75;65.49
6853;BME280;3465;42.144;24.722;2024-03-23T04:40:17;99957.03;;;3.58;66.74
6853;BME280;3465;42.144;24.722;2024-03-23T04:42:43;99954.09;;;3.70;66.53
6853;BME280;3465;42.144;24.722;2024-03-23T04:45:09;99959.94;;;4.02;65.00
6853;BME280;3465;42.144;24.722;2024-03-23T04:47:36;99965.16;;;3.99;65.45
6853;BME280;3465;42.144;24.722;2024-03-23T04:50:03;99923.59;;;3.87;64.95
6853;BME280;3465;42.144;24.722;2024-03-23T04:52:29;99957.06;;;4.11;64.62
6853;BME280;3465;42.144;24.722;2024-03-23T04:54:55;99963.00;;;4.13;64.24
6853;BME280;3465;42.144;24.722;2024-03-23T04:57:20;99968.84;;;4.18;63.93
6853;BME280;3465;42.144;24.722;2024-03-23T04:59:46;99954.22;;;4.20;64.17
6853;BME280;3465;42.144;24.722;2024-03-23T05:02:12;99964.03;;;4.60;63.46
6853;BME280;3465;42.144;24.722;2024-03-23T05:04:38;99959.25;;;5.45;60.82
6853;BME280;3465;42.144;24.722;2024-03-23T05:07:04;99954.88;;;5.24;60.97
6853;BME280;3465;42.144;24.722;2024-03-23T05:09:32;99951.88;;;5.13;60.93
6853;BME280;3465;42.144;24.722;2024-03-23T05:11:59;99942.34;;;5.15;61.00
6853;BME280;3465;42.144;24.722;2024-03-23T05:14:26;99956.38;;;5.06;61.05
6853;BME280;3465;42.144;24.722;2024-03-23T05:16:52;99966.38;;;4.91;62.02
6853;BME280;3465;42.144;24.722;2024-03-23T05:19:17;99958.03;;;4.84;63.35
6853;BME280;3465;42.144;24.722;2024-03-23T05:21:43;99961.53;;;5.06;62.12
6853;BME280;3465;42.144;24.722;2024-03-23T05:24:08;99936.56;;;5.08;61.32
6853;BME280;3465;42.144;24.722;2024-03-23T05:26:34;99946.88;;;5.32;60.01
6853;BME280;3465;42.144;24.722;2024-03-23T05:29:01;99953.03;;;5.04;61.11
6853;BME280;3465;42.144;24.722;2024-03-23T05:31:28;99949.34;;;5.35;60.94
6853;BME280;3465;42.144;24.722;2024-03-23T05:33:54;99949.97;;;5.41;60.83
6853;BME280;3465;42.144;24.722;2024-03-23T05:36:19;99944.91;;;5.61;59.92
6853;BME280;3465;42.144;24.722;2024-03-23T05:38:45;99948.06;;;5.68;59.35
6853;BME280;3465;42.144;24.722;2024-03-23T05:41:11;99948.59;;;5.76;57.71
6853;BME280;3465;42.144;24.722;2024-03-23T05:43:36;99943.22;;;5.83;57.45
6853;BME280;3465;42.144;24.722;2024-03-23T05:46:02;99943.69;;;5.93;57.34
6853;BME280;3465;42.144;24.722;2024-03-23T05:48:30;99940.59;;;6.27;55.78
6853;BME280;3465;42.144;24.722;2024-03-23T05:50:56;99943.34;;;6.22;56.62
6853;BME280;3465;42.144;24.722;2024-03-23T05:53:22;99937.06;;;6.49;55.44
6853;BME280;3465;42.144;24.722;2024-03-23T05:55:48;99942.22;;;6.69;55.33
6853;BME280;3465;42.144;24.722;2024-03-23T05:58:17;99943.56;;;6.98;54.00
6853;BME280;3465;42.144;24.722;2024-03-23T06:00:44;99939.81;;;7.24;53.06
6853;BME280;3465;42.144;24.722;2024-03-23T06:03:10;99944.63;;;7.31;52.58
6853;BME280;3465;42.144;24.722;2024-03-23T06:05:36;99946.38;;;7.31;52.27
6853;BME280;3465;42.144;24.722;2024-03-23T06:08:02;99941.78;;;7.37;52.99
6853;BME280;3465;42.144;24.722;2024-03-23T06:10:27;99943.88;;;7.66;51.69
6853;BME280;3465;42.144;24.722;2024-03-23T06:12:53;99936.09;;;7.85;49.96
6853;BME280;3465;42.144;24.722;2024-03-23T06:15:19;99943.59;;;8.27;49.84
6853;BME280;3465;42.144;24.722;2024-03-23T06:17:44;99940.03;;;8.46;48.67
6853;BME280;3465;42.144;24.722;2024-03-23T06:20:10;99931.88;;;8.37;49.23
6853;BME280;3465;42.144;24.722;2024-03-23T06:22:36;99938.25;;;8.81;48.56
6853;BME280;3465;42.144;24.722;2024-03-23T06:25:02;99937.44;;;9.29;47.94
6853;BME280;3465;42.144;24.722;2024-03-23T06:27:28;99934.66;;;9.16;47.47
6853;BME280;3465;42.144;24.722;2024-03-23T06:29:53;99931.22;;;9.16;47.22
6853;BME280;3465;42.144;24.722;2024-03-23T06:32:20;99937.03;;;9.36;47.58
6853;BME280;3465;42.144;24.722;2024-03-23T06:34:45;99931.88;;;9.68;46.82
6853;BME280;3465;42.144;24.722;2024-03-23T06:37:11;99933.28;;;9.89;45.13
6853;BME280;3465;42.144;24.722;2024-03-23T06:39:37;99929.16;;;10.00;44.62
6853;BME280;3465;42.144;24.722;2024-03-23T06:42:03;99926.00;;;9.95;44.95
6853;BME280;3465;42.144;24.722;2024-03-23T06:44:29;99931.75;;;10.32;45.31
6853;BME280;3465;42.144;24.722;2024-03-23T06:46:55;99927.25;;;10.04;45.36
6853;BME280;3465;42.144;24.722;2024-03-23T06:49:20;99921.66;;;10.41;44.39
6853;BME280;3465;42.144;24.722;2024-03-23T06:51:46;99931.25;;;10.69;42.34
6853;BME280;3465;42.144;24.722;2024-03-23T06:54:12;99923.84;;;10.77;42.89
6853;BME280;3465;42.144;24.722;2024-03-23T06:56:37;99933.63;;;10.87;42.63
6853;BME280;3465;42.144;24.722;2024-03-23T06:59:03;99933.81;;;10.98;42.96
6853;BME280;3465;42.144;24.722;2024-03-23T07:01:29;99925.72;;;11.17;41.56
6853;BME280;3465;42.144;24.722;2024-03-23T07:03:54;99905.50;;;11.22;41.49
6853;BME280;3465;42.144;24.722;2024-03-23T07:06:20;99921.81;;;11.52;40.74
6853;BME280;3465;42.144;24.722;2024-03-23T07:08:46;99926.91;;;11.40;40.86
6853;BME280;3465;42.144;24.722;2024-03-23T07:11:12;99923.63;;;11.78;41.26
6853;BME280;3465;42.144;24.722;2024-03-23T07:13:37;99921.63;;;12.23;39.76
6853;BME280;3465;42.144;24.722;2024-03-23T07:16:03;99915.78;;;12.32;39.40
6853;BME280;3465;42.144;24.722;2024-03-23T07:18:29;99916.16;;;12.65;38.33
6853;BME280;3465;42.144;24.722;2024-03-23T07:21:03;99921.47;;;12.76;38.22
6853;BME280;3465;42.144;24.722;2024-03-23T07:23:32;99906.88;;;12.86;38.62
6853;BME280;3465;42.144;24.722;2024-03-23T07:26:01;99909.13;;;13.05;38.85
6853;BME280;3465;42.144;24.722;2024-03-23T07:28:27;99907.22;;;13.19;37.60
6853;BME280;3465;42.144;24.722;2024-03-23T07:31:04;99912.22;;;13.22;36.88
6853;BME280;3465;42.144;24.722;2024-03-23T07:33:30;99902.44;;;13.62;36.28
6853;BME280;3465;42.144;24.722;2024-03-23T07:35:56;99904.34;;;13.84;35.94
6853;BME280;3465;42.144;24.722;2024-03-23T07:38:23;99890.41;;;13.96;36.84
6853;BME280;3465;42.144;24.722;2024-03-23T07:40:48;99887.06;;;13.94;35.47
6853;BME280;3465;42.144;24.722;2024-03-23T07:43:19;99895.59;;;14.19;34.47
6853;BME280;3465;42.144;24.722;2024-03-23T07:45:51;99896.47;;;14.55;34.06
6853;BME280;3465;42.144;24.722;2024-03-23T07:48:17;99887.53;;;14.57;33.96
6853;BME280;3465;42.144;24.722;2024-03-23T07:50:42;99889.84;;;14.84;33.29
6853;BME280;3465;42.144;24.722;2024-03-23T07:53:08;99886.16;;;14.97;33.45
6853;BME280;3465;42.144;24.722;2024-03-23T07:55:33;99878.56;;;15.05;33.54
6853;BME280;3465;42.144;24.722;2024-03-23T07:57:59;99881.56;;;15.01;32.43
6853;BME280;3465;42.144;24.722;2024-03-23T08:00:24;99873.22;;;15.18;32.99
6853;BME280;3465;42.144;24.722;2024-03-23T08:02:51;99871.09;;;15.45;32.37
6853;BME280;3465;42.144;24.722;2024-03-23T08:05:16;99871.97;;;15.66;32.37
6853;BME280;3465;42.144;24.722;2024-03-23T08:07:42;99865.25;;;15.31;33.05
6853;BME280;3465;42.144;24.722;2024-03-23T08:10:07;99866.56;;;15.47;31.69
6853;BME280;3465;42.144;24.722;2024-03-23T08:12:33;99864.25;;;15.54;32.63
6853;BME280;3465;42.144;24.722;2024-03-23T08:14:58;99865.72;;;14.91;33.72
6853;BME280;3465;42.144;24.722;2024-03-23T08:17:24;99856.91;;;15.37;33.49
6853;BME280;3465;42.144;24.722;2024-03-23T08:19:49;99859.78;;;15.87;31.92
6853;BME280;3465;42.144;24.722;2024-03-23T08:22:14;99858.28;;;16.05;30.97
6853;BME280;3465;42.144;24.722;2024-03-23T08:24:40;99853.94;;;16.36;30.35
6853;BME280;3465;42.144;24.722;2024-03-23T08:27:05;99859.78;;;16.08;29.43
6853;BME280;3465;42.144;24.722;2024-03-23T08:29:31;99846.66;;;16.19;29.69
6853;BME280;3465;42.144;24.722;2024-03-23T08:31:56;99834.72;;;16.67;29.99
6853;BME280;3465;42.144;24.722;2024-03-23T08:34:22;99835.78;;;16.85;28.47
6853;BME280;3465;42.144;24.722;2024-03-23T08:36:47;99843.91;;;16.41;29.14
6853;BME280;3465;42.144;24.722;2024-03-23T08:39:13;99826.28;;;16.64;29.70
6853;BME280;3465;42.144;24.722;2024-03-23T08:41:39;99822.28;;;17.00;29.44
6853;BME280;3465;42.144;24.722;2024-03-23T08:44:04;99819.47;;;17.31;29.14
6853;BME280;3465;42.144;24.722;2024-03-23T08:46:30;99821.69;;;17.26;29.72
6853;BME280;3465;42.144;24.722;2024-03-23T08:48:55;99810.97;;;17.09;29.05
6853;BME280;3465;42.144;24.722;2024-03-23T08:51:21;99811.53;;;17.03;30.01
6853;BME280;3465;42.144;24.722;2024-03-23T08:53:46;99807.13;;;17.13;28.94
6853;BME280;3465;42.144;24.722;2024-03-23T08:56:12;99804.13;;;17.17;29.78
6853;BME280;3465;42.144;24.722;2024-03-23T08:58:38;99800.03;;;17.43;28.31
6853;BME280;3465;42.144;24.722;2024-03-23T09:01:05;99793.03;;;17.04;27.79
6853;BME280;3465;42.144;24.722;2024-03-23T09:03:31;99787.72;;;17.34;27.29
6853;BME280;3465;42.144;24.722;2024-03-23T09:05:57;99790.06;;;17.37;28.24
6853;BME280;3465;42.144;24.722;2024-03-23T09:08:23;99791.16;;;17.25;27.03
6853;BME280;3465;42.144;24.722;2024-03-23T09:10:49;99782.75;;;17.41;27.55
6853;BME280;3465;42.144;24.722;2024-03-23T09:13:14;99779.88;;;17.63;26.87
6853;BME280;3465;42.144;24.722;2024-03-23T09:15:51;99779.63;;;17.76;28.42
6853;BME280;3465;42.144;24.722;2024-03-23T09:18:21;99777.97;;;17.84;26.59
6853;BME280;3465;42.144;24.722;2024-03-23T09:20:47;99777.34;;;18.28;26.58
6853;BME280;3465;42.144;24.722;2024-03-23T09:23:12;99761.31;;;19.05;25.97
6853;BME280;3465;42.144;24.722;2024-03-23T09:25:38;99773.50;;;19.51;24.96
6853;BME280;3465;42.144;24.722;2024-03-23T09:28:05;99744.97;;;18.28;25.33
6853;BME280;3465;42.144;24.722;2024-03-23T09:30:32;99742.19;;;18.39;25.98
6853;BME280;3465;42.144;24.722;2024-03-23T09:32:58;99748.84;;;18.43;26.34
6853;BME280;3465;42.144;24.722;2024-03-23T09:35:24;99754.00;;;18.99;25.59
6853;BME280;3465;42.144;24.722;2024-03-23T09:37:49;99737.78;;;18.94;25.38
6853;BME280;3465;42.144;24.722;2024-03-23T09:40:15;99744.22;;;19.36;25.10
6853;BME280;3465;42.144;24.722;2024-03-23T09:42:41;99746.47;;;19.84;24.10
6853;BME280;3465;42.144;24.722;2024-03-23T09:45:17;99729.56;;;19.94;23.75
6853;BME280;3465;42.144;24.722;2024-03-23T09:47:43;99735.78;;;19.50;25.15
6853;BME280;3465;42.144;24.722;2024-03-23T09:50:09;99728.97;;;19.40;24.87
6853;BME280;3465;42.144;24.722;2024-03-23T09:52:35;99704.25;;;18.96;24.44
6853;BME280;3465;42.144;24.722;2024-03-23T09:55:01;99716.47;;;19.14;24.89
6853;BME280;3465;42.144;24.722;2024-03-23T09:57:30;99716.38;;;19.51;23.78
6853;BME280;3465;42.144;24.722;2024-03-23T09:59:55;99713.66;;;19.25;25.55
6853;BME280;3465;42.144;24.722;2024-03-23T10:02:23;99705.66;;;19.17;25.67
6853;BME280;3465;42.144;24.722;2024-03-23T10:04:49;99700.72;;;19.93;24.51
6853;BME280;3465;42.144;24.722;2024-03-23T10:07:21;99697.97;;;19.24;24.99
6853;BME280;3465;42.144;24.722;2024-03-23T10:09:47;99696.03;;;18.08;26.40
6853;BME280;3465;42.144;24.722;2024-03-23T10:12:16;99694.28;;;17.89;27.71
6853;BME280;3465;42.144;24.722;2024-03-23T10:14:42;99687.91;;;18.47;26.60
6853;BME280;3465;42.144;24.722;2024-03-23T10:19:46;99683.31;;;20.00;24.91
6853;BME280;3465;42.144;24.722;2024-03-23T10:22:19;99676.03;;;19.94;24.46
6853;BME280;3465;42.144;24.722;2024-03-23T10:24:47;99665.72;;;20.08;24.85
6853;BME280;3465;42.144;24.722;2024-03-23T10:27:16;99659.78;;;19.55;24.56
6853;BME280;3465;42.144;24.722;2024-03-23T10:29:49;99671.56;;;18.98;25.29
6853;BME280;3465;42.144;24.722;2024-03-23T10:32:16;99655.63;;;19.00;24.92
6853;BME280;3465;42.144;24.722;2024-03-23T10:34:42;99649.25;;;18.21;25.99
6853;BME280;3465;42.144;24.722;2024-03-23T10:37:08;99647.72;;;19.00;25.02
6853;BME280;3465;42.144;24.722;2024-03-23T10:39:35;99656.84;;;19.05;25.44
6853;BME280;3465;42.144;24.722;2024-03-23T10:42:08;99647.34;;;19.30;25.60
6853;BME280;3465;42.144;24.722;2024-03-23T10:44:35;99643.44;;;19.16;25.13
6853;BME280;3465;42.144;24.722;2024-03-23T10:47:02;99638.00;;;19.18;24.61
6853;BME280;3465;42.144;24.722;2024-03-23T10:49:32;99630.69;;;19.90;24.25
6853;BME280;3465;42.144;24.722;2024-03-23T10:51:59;99625.19;;;19.76;23.83
6853;BME280;3465;42.144;24.722;2024-03-23T10:54:25;99616.44;;;20.35;23.79
6853;BME280;3465;42.144;24.722;2024-03-23T10:57:13;99615.03;;;20.48;23.43
6853;BME280;3465;42.144;24.722;2024-03-23T10:59:40;99607.75;;;20.42;23.63
6853;BME280;3465;42.144;24.722;2024-03-23T11:02:07;99595.91;;;20.54;23.43
6853;BME280;3465;42.144;24.722;2024-03-23T11:04:44;99596.22;;;20.51;23.59
6853;BME280;3465;42.144;24.722;2024-03-23T11:09:53;99579.63;;;21.71;24.90
6853;BME280;3465;42.144;24.722;2024-03-23T11:14:45;99576.22;;;21.47;23.59
6853;BME280;3465;42.144;24.722;2024-03-23T11:17:11;99564.41;;;21.73;22.85
6853;BME280;3465;42.144;24.722;2024-03-23T11:19:37;99568.09;;;21.64;22.74
6853;BME280;3465;42.144;24.722;2024-03-23T11:22:04;99559.38;;;21.24;23.19
6853;BME280;3465;42.144;24.722;2024-03-23T11:24:30;99548.50;;;21.35;22.55
6853;BME280;3465;42.144;24.722;2024-03-23T11:26:56;99544.91;;;21.91;22.25
6853;BME280;3465;42.144;24.722;2024-03-23T11:29:25;99541.78;;;21.87;21.28
6853;BME280;3465;42.144;24.722;2024-03-23T11:31:52;99545.81;;;21.51;22.84
6853;BME280;3465;42.144;24.722;2024-03-23T11:34:21;99537.09;;;21.18;22.27
6853;BME280;3465;42.144;24.722;2024-03-23T11:36:47;99525.19;;;20.82;23.12
6853;BME280;3465;42.144;24.722;2024-03-23T11:39:17;99521.16;;;21.82;22.13
6853;BME280;3465;42.144;24.722;2024-03-23T11:41:50;99507.94;;;22.44;21.08
6853;BME280;3465;42.144;24.722;2024-03-23T11:44:25;99510.03;;;21.95;21.11
6853;BME280;3465;42.144;24.722;2024-03-23T11:46:51;99503.78;;;21.72;21.41
6853;BME280;3465;42.144;24.722;2024-03-23T11:49:29;99497.44;;;22.05;21.51
6853;BME280;3465;42.144;24.722;2024-03-23T11:51:56;99490.41;;;21.02;22.33
6853;BME280;3465;42.144;24.722;2024-03-23T11:54:26;99492.31;;;21.49;21.41
6853;BME280;3465;42.144;24.722;2024-03-23T11:57:02;99479.06;;;21.65;21.42
6853;BME280;3465;42.144;24.722;2024-03-23T11:59:40;99484.28;;;22.42;21.29
6853;BME280;3465;42.144;24.722;2024-03-23T12:04:32;99474.41;;;22.67;20.73
6853;BME280;3465;42.144;24.722;2024-03-23T12:07:14;99463.38;;;22.78;20.34
6853;BME280;3465;42.144;24.722;2024-03-23T12:09:40;99462.34;;;22.11;20.47
6853;BME280;3465;42.144;24.722;2024-03-23T12:12:17;99445.03;;;22.77;19.83
6853;BME280;3465;42.144;24.722;2024-03-23T12:17:13;99446.63;;;22.86;19.54
6853;BME280;3465;42.144;24.722;2024-03-23T12:19:39;99442.19;;;22.55;19.60
6853;BME280;3465;42.144;24.722;2024-03-23T12:22:06;99440.75;;;22.76;20.21
6853;BME280;3465;42.144;24.722;2024-03-23T12:24:32;99441.06;;;22.50;19.95
6853;BME280;3465;42.144;24.722;2024-03-23T12:29:29;99425.19;;;22.05;20.45
6853;BME280;3465;42.144;24.722;2024-03-23T12:31:59;99428.16;;;21.24;21.15
6853;BME280;3465;42.144;24.722;2024-03-23T12:34:25;99419.38;;;21.70;20.84
6853;BME280;3465;42.144;24.722;2024-03-23T12:36:50;99414.06;;;21.78;20.50
6853;BME280;3465;42.144;24.722;2024-03-23T12:39:16;99417.16;;;21.51;21.13
6853;BME280;3465;42.144;24.722;2024-03-23T12:41:41;99409.59;;;21.40;21.07
6853;BME280;3465;42.144;24.722;2024-03-23T12:44:07;99410.72;;;21.46;21.18
6853;BME280;3465;42.144;24.722;2024-03-23T12:46:34;99407.88;;;21.00;20.83
6853;BME280;3465;42.144;24.722;2024-03-23T12:49:00;99398.28;;;20.99;21.10
6853;BME280;3465;42.144;24.722;2024-03-23T12:51:25;99400.03;;;21.39;21.25
6853;BME280;3465;42.144;24.722;2024-03-23T12:53:51;99397.19;;;21.79;20.51
6853;BME280;3465;42.144;24.722;2024-03-23T12:56:16;99389.25;;;21.79;19.77
6853;BME280;3465;42.144;24.722;2024-03-23T12:58:42;99383.00;;;21.80;21.01
6853;BME280;3465;42.144;24.722;2024-03-23T13:01:07;99377.44;;;21.98;19.87
6853;BME280;3465;42.144;24.722;2024-03-23T13:03:33;99371.19;;;21.99;20.30
6853;BME280;3465;42.144;24.722;2024-03-23T13:05:58;99373.13;;;22.05;19.24
6853;BME280;3465;42.144;24.722;2024-03-23T13:08:24;99373.50;;;21.63;20.07
6853;BME280;3465;42.144;24.722;2024-03-23T13:10:53;99371.59;;;21.41;18.72
6853;BME280;3465;42.144;24.722;2024-03-23T13:13:18;99352.81;;;21.98;20.01
6853;BME280;3465;42.144;24.722;2024-03-23T13:15:52;99358.22;;;21.81;19.43
6853;BME280;3465;42.144;24.722;2024-03-23T13:18:17;99353.94;;;22.26;19.22
6853;BME280;3465;42.144;24.722;2024-03-23T13:20:43;99351.78;;;21.76;18.61
6853;BME280;3465;42.144;24.722;2024-03-23T13:23:09;99341.38;;;21.82;19.27
6853;BME280;3465;42.144;24.722;2024-03-23T13:25:35;99344.81;;;21.52;19.00
6853;BME280;3465;42.144;24.722;2024-03-23T13:28:01;99345.50;;;21.08;19.47
6853;BME280;3465;42.144;24.722;2024-03-23T13:30:27;99340.59;;;20.88;19.47
6853;BME280;3465;42.144;24.722;2024-03-23T13:32:53;99332.72;;;20.64;19.17
6853;BME280;3465;42.144;24.722;2024-03-23T13:35:18;99334.06;;;20.52;18.09
6853;BME280;3465;42.144;24.722;2024-03-23T13:37:44;99330.38;;;20.69;18.72
6853;BME280;3465;42.144;24.722;2024-03-23T13:40:10;99324.53;;;21.14;18.48
6853;BME280;3465;42.144;24.722;2024-03-23T13:42:36;99326.56;;;20.80;19.46
6853;BME280;3465;42.144;24.722;2024-03-23T13:45:02;99319.72;;;20.31;19.44
6853;BME280;3465;42.144;24.722;2024-03-23T13:47:28;99321.53;;;20.46;20.63
6853;BME280;3465;42.144;24.722;2024-03-23T13:49:53;99318.50;;;20.73;20.87
6853;BME280;3465;42.144;24.722;2024-03-23T13:52:19;99304.66;;;20.63;19.86
6853;BME280;3465;42.144;24.722;2024-03-23T13:54:48;99304.53;;;20.41;20.48
6853;BME280;3465;42.144;24.722;2024-03-23T13:57:14;99304.56;;;20.25;20.67
6853;BME280;3465;42.144;24.722;2024-03-23T13:59:39;99302.69;;;19.77;21.00
6853;BME280;3465;42.144;24.722;2024-03-23T14:02:05;99299.25;;;19.92;20.50
6853;BME280;3465;42.144;24.722;2024-03-23T14:04:30;99299.59;;;19.81;20.61
6853;BME280;3465;42.144;24.722;2024-03-23T14:06:56;99285.41;;;19.82;20.46
6853;BME280;3465;42.144;24.722;2024-03-23T14:09:23;99279.97;;;19.60;21.29
6853;BME280;3465;42.144;24.722;2024-03-23T14:11:51;99279.66;;;19.95;20.65
6853;BME280;3465;42.144;24.722;2024-03-23T14:14:16;99287.38;;;19.88;20.54
6853;BME280;3465;42.144;24.722;2024-03-23T14:16:45;99287.53;;;19.63;20.28
6853;BME280;3465;42.144;24.722;2024-03-23T14:19:11;99279.53;;;19.30;19.98
6853;BME280;3465;42.144;24.722;2024-03-23T14:21:37;99268.75;;;19.50;21.71